Time;durP1;ratioP1;P1;durP2;ratioP2;P2;SDS_P1;SDS_P2;PMS_P1;PMS_P2;Temp;Humidity;BMP_temperature;BMP_pressure;BME280_temperature;BME280_humidity;BME280_pressure;Samples;Min_cycle;Max_cycle;Signal;HPM_P1;HPM_P2
2022/03/31 00:01:49;;;;;;;45.53;18.77;;;4.10;99.90;;;;;;5075859;28;20024;-90
2022/03/31 00:04:15;;;;;;;37.40;18.05;;;4.20;99.90;;;;;;5075660;28;20027;-91
2022/03/31 00:06:41;;;;;;;57.45;21.17;;;4.20;99.90;;;;;;5075609;28;20111;-90
2022/03/31 00:09:58;;;;;;;38.67;19.00;;;4.20;99.90;;;;;;5075575;28;20479;-89
2022/03/31 00:12:23;;;;;;;35.90;17.92;;;4.20;99.90;;;;;;5075539;28;20024;-89
2022/03/31 00:15:09;;;;;;;35.33;19.38;;;4.20;99.90;;;;;;5093421;28;20115;-90
2022/03/31 00:17:35;;;;;;;30.90;17.55;;;4.30;99.90;;;;;;5093274;28;20085;-89
2022/03/31 00:20:03;;;;;;;45.97;19.83;;;4.30;99.90;;;;;;5093166;28;20036;-89
2022/03/31 00:22:28;;;;;;;38.58;18.85;;;4.30;99.90;;;;;;5075024;28;20065;-89
2022/03/31 00:24:54;;;;;;;34.65;16.95;;;4.30;99.90;;;;;;5075074;28;20465;-90
2022/03/31 00:27:46;;;;;;;31.35;17.05;;;4.30;99.90;;;;;;5093294;28;20499;-89
2022/03/31 00:30:13;;;;;;;42.35;18.67;;;4.30;99.90;;;;;;5093254;28;20028;-89
2022/03/31 00:32:40;;;;;;;33.97;17.00;;;4.40;99.90;;;;;;5055418;28;20056;-89
2022/03/31 00:35:21;;;;;;;33.50;17.90;;;4.40;99.90;;;;;;5051718;28;20061;-89
2022/03/31 00:37:48;;;;;;;37.65;18.65;;;4.40;99.90;;;;;;5052592;28;20040;-89
2022/03/31 00:40:20;;;;;;;35.78;17.75;;;4.50;99.90;;;;;;5052832;28;20037;-89
2022/03/31 00:42:49;;;;;;;37.00;17.95;;;4.50;99.90;;;;;;5052894;28;20021;-89
2022/03/31 00:45:51;;;;;;;31.90;19.10;;;4.50;99.90;;;;;;5051485;28;20049;-90
2022/03/31 00:48:19;;;;;;;32.03;18.15;;;4.50;99.90;;;;;;5052684;28;20025;-89
2022/03/31 00:50:45;;;;;;;33.50;18.88;;;4.50;99.90;;;;;;5051677;28;20052;-89
2022/03/31 00:53:17;;;;;;;30.30;16.90;;;4.60;99.90;;;;;;5056693;28;20029;-89
2022/03/31 00:55:45;;;;;;;40.20;19.50;;;4.60;99.90;;;;;;5056673;28;20021;-89
2022/03/31 00:58:12;;;;;;;42.22;18.42;;;4.60;99.90;;;;;;5056766;28;20033;-90
2022/03/31 01:01:19;;;;;;;37.20;17.58;;;4.60;99.90;;;;;;5055872;28;20036;-91
2022/03/31 01:03:45;;;;;;;29.58;18.27;;;4.60;99.90;;;;;;5056786;28;20431;-90
2022/03/31 01:06:10;;;;;;;35.20;18.45;;;4.60;99.90;;;;;;5055924;28;20024;-91
2022/03/31 01:08:59;;;;;;;30.98;17.70;;;4.60;99.90;;;;;;5056465;28;20032;-90
2022/03/31 01:11:24;;;;;;;36.85;20.20;;;4.60;99.90;;;;;;5055669;28;20028;-90
2022/03/31 01:13:50;;;;;;;34.03;19.08;;;4.60;99.90;;;;;;5056557;28;20032;-90
2022/03/31 01:16:17;;;;;;;49.50;20.20;;;4.70;99.90;;;;;;5055361;28;20029;-90
2022/03/31 01:18:42;;;;;;;42.08;18.58;;;4.70;99.90;;;;;;5056660;28;20079;-90
2022/03/31 01:21:11;;;;;;;33.20;18.00;;;4.70;99.90;;;;;;5055340;28;20045;-90
2022/03/31 01:23:37;;;;;;;34.70;16.90;;;4.60;99.90;;;;;;5055062;28;20056;-90
2022/03/31 01:26:19;;;;;;;26.33;15.98;;;4.70;99.90;;;;;;5055215;28;20044;-90
2022/03/31 01:28:44;;;;;;;29.00;15.10;;;4.60;99.90;;;;;;5035311;28;20113;-90
2022/03/31 01:31:11;;;;;;;34.90;17.73;;;4.60;99.90;;;;;;5041835;28;20132;-91
2022/03/31 01:33:37;;;;;;;34.80;16.55;;;4.60;99.90;;;;;;5058592;28;20024;-90
2022/03/31 01:36:05;;;;;;;36.45;16.63;;;4.60;99.90;;;;;;5059122;28;20032;-91
2022/03/31 01:41:53;;;;;;;32.90;14.77;;;4.60;99.90;;;;;;5096433;28;20068;-90
2022/03/31 01:44:19;;;;;;;27.55;14.73;;;4.60;99.90;;;;;;5078351;28;20400;-90
2022/03/31 01:46:44;;;;;;;37.13;16.92;;;4.60;99.90;;;;;;5078360;28;20464;-90
2022/03/31 01:49:10;;;;;;;30.58;15.45;;;4.60;99.90;;;;;;5096424;28;20031;-90
2022/03/31 01:52:12;;;;;;;27.63;15.50;;;4.60;99.90;;;;;;5078009;28;20498;-90
2022/03/31 01:54:37;;;;;;;23.55;13.15;;;4.50;99.90;;;;;;5078400;28;20433;-90
2022/03/31 01:57:03;;;;;;;19.70;11.50;;;4.50;99.90;;;;;;5078227;28;20129;-90
2022/03/31 01:59:49;;;;;;;28.60;15.02;;;4.50;99.90;;;;;;5078123;28;20027;-90
2022/03/31 02:02:17;;;;;;;29.65;13.10;;;4.40;99.90;;;;;;5077630;28;20024;-90
2022/03/31 02:04:43;;;;;;;22.48;11.57;;;4.40;99.90;;;;;;5077987;28;20028;-90
2022/03/31 02:07:16;;;;;;;28.30;12.65;;;4.40;99.90;;;;;;5077929;28;20016;-91
2022/03/31 02:09:42;;;;;;;28.27;14.10;;;4.40;99.90;;;;;;5095995;28;20020;-90
2022/03/31 02:12:28;;;;;;;30.65;13.35;;;4.40;99.90;;;;;;5095794;28;20532;-90
2022/03/31 02:18:30;;;;;;;27.20;12.82;;;4.40;99.90;;;;;;5096044;28;20022;-90
2022/03/31 02:20:56;;;;;;;22.55;12.45;;;4.40;99.90;;;;;;5060931;28;20031;-90
2022/03/31 02:23:21;;;;;;;19.05;12.00;;;4.40;99.90;;;;;;5095569;28;20020;-91
2022/03/31 02:25:59;;;;;;;22.85;13.85;;;4.40;99.90;;;;;;5095911;28;20069;-90
2022/03/31 02:28:25;;;;;;;22.85;12.43;;;4.30;99.90;;;;;;5095828;28;20381;-90
2022/03/31 02:30:50;;;;;;;23.63;12.52;;;4.20;99.90;;;;;;5077521;28;20114;-90
2022/03/31 02:33:21;;;;;;;25.00;14.85;;;4.20;99.90;;;;;;5077454;28;20032;-90
2022/03/31 02:35:47;;;;;;;25.45;14.15;;;4.20;99.90;;;;;;5077337;28;20024;-90
2022/03/31 02:38:12;;;;;;;32.05;14.77;;;4.10;99.90;;;;;;5095239;28;20103;-90
2022/03/31 02:41:06;;;;;;;24.55;14.50;;;4.10;99.90;;;;;;5095496;28;20468;-90
2022/03/31 02:43:32;;;;;;;24.58;13.20;;;4.10;99.90;;;;;;5077244;28;20050;-90
2022/03/31 02:46:17;;;;;;;27.23;15.60;;;4.10;99.90;;;;;;5077174;28;20024;-90
2022/03/31 02:48:42;;;;;;;24.48;14.98;;;4.10;99.90;;;;;;5077289;28;20058;-90
2022/03/31 02:51:08;;;;;;;30.88;18.48;;;4.10;99.90;;;;;;5095258;28;20499;-90
2022/03/31 02:56:20;;;;;;;47.97;24.08;;;4.10;99.90;;;;;;5095411;28;20031;-91
2022/03/31 02:58:45;;;;;;;44.42;22.88;;;4.10;99.90;;;;;;5095258;28;20028;-90
2022/03/31 03:01:21;;;;;;;35.30;21.00;;;4.10;99.90;;;;;;5076917;28;20042;-90
2022/03/31 03:03:46;;;;;;;38.20;22.05;;;4.10;99.90;;;;;;5076573;28;20055;-91
2022/03/31 03:06:36;;;;;;;44.22;25.13;;;4.10;99.90;;;;;;5094786;28;20448;-90
2022/03/31 03:09:03;;;;;;;38.13;22.52;;;4.10;99.90;;;;;;5076594;28;20426;-90
2022/03/31 03:11:29;;;;;;;44.80;23.85;;;4.10;99.90;;;;;;5094806;28;20107;-91
2022/03/31 03:13:59;;;;;;;42.03;23.30;;;4.10;99.90;;;;;;5075557;28;20031;-90
2022/03/31 03:16:25;;;;;;;46.47;23.77;;;4.10;99.90;;;;;;5094694;28;20384;-90
2022/03/31 03:19:00;;;;;;;41.38;22.90;;;4.10;99.90;;;;;;5076296;28;20028;-90
2022/03/31 03:21:39;;;;;;;43.47;23.40;;;4.10;99.90;;;;;;5094172;28;20043;-90
2022/03/31 03:24:05;;;;;;;53.85;24.73;;;4.20;99.90;;;;;;5076224;28;20262;-90
2022/03/31 03:26:31;;;;;;;44.03;23.80;;;4.20;99.90;;;;;;5076346;28;20016;-90
2022/03/31 03:29:26;;;;;;;45.65;25.08;;;4.20;99.90;;;;;;5094309;28;20495;-90
2022/03/31 03:31:53;;;;;;;40.65;23.40;;;4.20;99.90;;;;;;5076107;28;20040;-89
2022/03/31 03:34:19;;;;;;;39.08;23.08;;;4.20;99.90;;;;;;5093946;28;20024;-90
2022/03/31 03:37:00;;;;;;;44.65;24.83;;;4.20;99.90;;;;;;5075951;28;20453;-90
2022/03/31 03:39:25;;;;;;;46.65;26.20;;;4.20;99.90;;;;;;5076208;28;20024;-90
2022/03/31 03:41:51;;;;;;;50.75;25.50;;;4.20;99.90;;;;;;5094418;28;20387;-90
2022/03/31 03:44:24;;;;;;;55.53;30.58;;;4.20;99.90;;;;;;5076223;28;20028;-90
2022/03/31 03:46:50;;;;;;;57.17;31.98;;;4.20;99.90;;;;;;5076132;28;20023;-90
2022/03/31 03:49:16;;;;;;;72.25;34.45;;;4.10;99.90;;;;;;5094073;28;20095;-90
2022/03/31 03:51:45;;;;;;;68.25;34.17;;;4.10;99.90;;;;;;5075870;28;20498;-89
2022/03/31 03:54:11;;;;;;;62.38;33.92;;;4.10;99.90;;;;;;5075948;28;20372;-89
2022/03/31 03:56:37;;;;;;;61.65;34.97;;;4.10;99.90;;;;;;5093382;28;20103;-89
2022/03/31 03:59:22;;;;;;;72.97;37.53;;;4.10;99.90;;;;;;5075310;28;20067;-88
2022/03/31 04:01:48;;;;;;;76.30;39.13;;;4.10;99.90;;;;;;5075359;28;20024;-90
2022/03/31 04:04:15;;;;;;;62.83;35.50;;;4.10;99.90;;;;;;5075334;28;20046;-87
2022/03/31 04:06:41;;;;;;;69.32;35.10;;;4.10;99.90;;;;;;5086709;28;20032;-89
2022/03/31 04:09:13;;;;;;;72.57;37.58;;;4.00;99.90;;;;;;5073251;28;20435;-89
2022/03/31 04:11:39;;;;;;;72.82;39.60;;;4.00;99.90;;;;;;5058269;28;20052;-88
2022/03/31 04:14:32;;;;;;;69.35;39.70;;;4.00;99.90;;;;;;5093201;28;20047;-88
2022/03/31 04:16:58;;;;;;;77.47;39.13;;;4.00;99.90;;;;;;5075123;28;20038;-88
2022/03/31 04:19:33;;;;;;;75.28;40.75;;;4.00;99.90;;;;;;5075322;28;20114;-88
2022/03/31 04:21:59;;;;;;;78.82;39.70;;;4.00;99.90;;;;;;5093199;28;20032;-89
2022/03/31 04:24:26;;;;;;;74.18;41.42;;;4.00;99.90;;;;;;5075044;28;20020;-89
2022/03/31 04:26:51;;;;;;;70.68;43.00;;;4.10;99.90;;;;;;5093103;28;20020;-89
2022/03/31 04:29:34;;;;;;;64.50;40.00;;;4.10;99.90;;;;;;5075152;28;20470;-90
2022/03/31 04:32:26;;;;;;;72.15;41.63;;;4.10;99.90;;;;;;5093349;28;20076;-89
2022/03/31 04:34:52;;;;;;;65.25;37.42;;;4.10;99.90;;;;;;5093431;28;20540;-88
2022/03/31 04:37:19;;;;;;;49.88;30.48;;;4.10;99.90;;;;;;5074869;28;20020;-88
2022/03/31 04:39:44;;;;;;;45.90;27.95;;;4.10;99.90;;;;;;5074263;28;20036;-88
2022/03/31 04:42:10;;;;;;;49.63;26.58;;;4.10;99.90;;;;;;5092926;28;20372;-88
2022/03/31 04:44:55;;;;;;;45.60;25.27;;;4.10;99.90;;;;;;5075089;28;20476;-89
2022/03/31 04:47:21;;;;;;;46.45;25.10;;;4.10;99.90;;;;;;5091589;28;20078;-88
2022/03/31 04:49:52;;;;;;;48.78;26.00;;;4.10;99.90;;;;;;5055065;28;20029;-89
2022/03/31 04:52:17;;;;;;;47.67;24.48;;;4.10;99.90;;;;;;5072553;28;20021;-89
2022/03/31 04:54:46;;;;;;;51.28;26.38;;;4.00;99.90;;;;;;5057150;28;20046;-88
2022/03/31 04:57:18;;;;;;;45.33;25.67;;;4.00;99.90;;;;;;5074787;28;20020;-89
2022/03/31 04:59:53;;;;;;;46.45;23.73;;;4.00;99.90;;;;;;5092773;28;20040;-88
2022/03/31 05:02:19;;;;;;;60.47;25.63;;;3.90;99.90;;;;;;5092837;28;20483;-87
2022/03/31 05:04:55;;;;;;;49.63;26.13;;;4.00;99.90;;;;;;5092909;28;20024;-88
2022/03/31 05:07:21;;;;;;;43.60;25.13;;;4.00;99.90;;;;;;5074831;28;20039;-88
2022/03/31 05:09:50;;;;;;;59.17;28.23;;;4.00;99.90;;;;;;5092769;28;20016;-88
2022/03/31 05:12:15;;;;;;;47.10;24.45;;;4.00;99.90;;;;;;5074654;28;20020;-88
2022/03/31 05:14:41;;;;;;;45.17;22.95;;;4.00;99.90;;;;;;5092720;28;20028;-87
2022/03/31 05:17:07;;;;;;;42.17;23.77;;;4.00;99.90;;;;;;5074497;28;20357;-88
2022/03/31 05:19:33;;;;;;;42.95;22.33;;;4.00;99.90;;;;;;5092164;28;20012;-88
2022/03/31 05:21:59;;;;;;;35.22;19.35;;;4.00;99.90;;;;;;5091966;28;20473;-87
2022/03/31 05:24:25;;;;;;;34.60;14.38;;;4.00;99.90;;;;;;5092359;28;20031;-88
2022/03/31 05:26:54;;;;;;;28.25;14.55;;;3.90;99.90;;;;;;5074314;28;20543;-87
2022/03/31 05:29:29;;;;;;;22.25;12.25;;;3.80;99.90;;;;;;5092420;28;20026;-87
2022/03/31 05:32:34;;;;;;;28.75;13.30;;;3.80;99.90;;;;;;5092043;28;20149;-87
2022/03/31 05:35:00;;;;;;;30.95;15.60;;;3.70;99.90;;;;;;5092644;28;20032;-88
2022/03/31 05:37:33;;;;;;;30.73;16.50;;;3.70;99.90;;;;;;5075200;28;20039;-87
2022/03/31 05:40:03;;;;;;;32.65;15.50;;;3.70;99.90;;;;;;5095721;28;20450;-87
2022/03/31 05:42:37;;;;;;;29.15;14.70;;;3.70;99.90;;;;;;5095787;28;20031;-88
2022/03/31 05:45:04;;;;;;;29.48;16.08;;;3.70;99.90;;;;;;5095869;28;20051;-87
2022/03/31 05:47:39;;;;;;;31.63;16.00;;;3.60;99.90;;;;;;5096000;28;20024;-87
2022/03/31 05:50:06;;;;;;;29.53;14.80;;;3.60;99.90;;;;;;5095859;28;20451;-87
2022/03/31 05:52:43;;;;;;;45.13;13.38;;;3.60;99.90;;;;;;5095603;28;20348;-88
2022/03/31 05:55:11;;;;;;;32.45;13.85;;;3.70;99.90;;;;;;5095938;28;20031;-87
2022/03/31 05:57:39;;;;;;;32.30;13.90;;;3.60;99.90;;;;;;5077613;28;20028;-87
2022/03/31 06:00:07;;;;;;;38.53;14.18;;;3.60;99.90;;;;;;5096065;28;20082;-86
2022/03/31 06:02:38;;;;;;;33.70;14.55;;;3.50;99.90;;;;;;5077207;28;20076;-86
2022/03/31 06:05:05;;;;;;;37.58;15.45;;;3.40;99.90;;;;;;5095537;28;20130;-87
2022/03/31 06:07:32;;;;;;;31.42;14.75;;;3.40;99.90;;;;;;5095041;28;20024;-87
2022/03/31 06:09:58;;;;;;;24.75;12.75;;;3.40;99.90;;;;;;5095305;28;20098;-87
2022/03/31 06:12:25;;;;;;;30.20;14.52;;;3.40;99.90;;;;;;5094934;28;20040;-87
2022/03/31 06:14:51;;;;;;;33.67;15.00;;;3.40;99.90;;;;;;5095425;28;20040;-87
2022/03/31 06:17:19;;;;;;;41.22;14.70;;;3.40;99.90;;;;;;5095319;28;20028;-87
2022/03/31 06:19:45;;;;;;;37.67;15.88;;;3.40;99.90;;;;;;5095308;28;20028;-88
2022/03/31 06:22:13;;;;;;;36.65;15.18;;;3.40;99.90;;;;;;5076908;28;20030;-87
2022/03/31 06:24:39;;;;;;;41.78;15.50;;;3.40;99.90;;;;;;5095480;28;20092;-90
2022/03/31 06:27:07;;;;;;;32.05;15.38;;;3.40;99.90;;;;;;5077197;28;20058;-89
2022/03/31 06:29:34;;;;;;;39.22;16.50;;;3.40;99.90;;;;;;5095482;28;20028;-89
2022/03/31 06:32:02;;;;;;;45.53;17.05;;;3.40;99.90;;;;;;5063751;28;20053;-89
2022/03/31 06:34:32;;;;;;;42.17;18.90;;;3.30;99.90;;;;;;5055082;28;20033;-90
2022/03/31 06:36:58;;;;;;;46.45;18.65;;;3.50;99.90;;;;;;5054378;28;20481;-89
2022/03/31 06:39:35;;;;;;;40.95;20.35;;;3.40;99.90;;;;;;5054914;28;20055;-90
2022/03/31 06:42:00;;;;;;;39.10;19.40;;;3.40;99.90;;;;;;5053636;28;20032;-90
2022/03/31 06:44:41;;;;;;;35.22;19.48;;;3.40;99.90;;;;;;5053275;28;20029;-89
2022/03/31 06:47:07;;;;;;;48.08;18.80;;;3.40;99.90;;;;;;5053337;28;20020;-89
2022/03/31 06:49:35;;;;;;;40.28;19.15;;;3.50;99.90;;;;;;5053436;28;20029;-88
2022/03/31 06:52:00;;;;;;;36.70;18.42;;;3.40;99.90;;;;;;5054330;28;20040;-89
2022/03/31 06:54:36;;;;;;;40.88;20.17;;;3.40;99.90;;;;;;5053152;28;20028;-89
2022/03/31 06:57:02;;;;;;;;;;;3.40;99.90;;;;;;5055014;28;20095;-89
2022/03/31 06:59:29;;;;;;;37.45;19.33;;;3.40;99.90;;;;;;5054479;28;19909;-88
2022/03/31 07:01:54;;;;;;;38.17;20.20;;;3.40;99.90;;;;;;5054344;28;20036;-89
2022/03/31 07:04:22;;;;;;;40.20;21.00;;;3.30;99.90;;;;;;5054359;28;20021;-87
2022/03/31 07:06:50;;;;;;;40.42;20.60;;;3.30;99.90;;;;;;5053980;28;20028;-89
2022/03/31 07:09:26;;;;;;;44.30;21.65;;;3.30;99.90;;;;;;5054080;28;20437;-88
2022/03/31 07:11:51;;;;;;;47.50;22.45;;;3.20;99.90;;;;;;5054055;28;20029;-87
2022/03/31 07:14:35;;;;;;;51.38;21.92;;;3.20;99.90;;;;;;5054000;28;20021;-89
2022/03/31 07:17:01;;;;;;;47.58;23.13;;;3.20;99.90;;;;;;5054016;28;20028;-89
2022/03/31 07:19:38;;;;;;;44.63;22.98;;;3.20;99.90;;;;;;5052695;28;20059;-88
2022/03/31 07:22:04;;;;;;;56.38;24.92;;;3.10;99.90;;;;;;5053604;28;20411;-87
2022/03/31 07:24:31;;;;;;;58.40;28.05;;;3.10;99.90;;;;;;5052448;28;20071;-88
2022/03/31 07:26:57;;;;;;;48.55;24.85;;;3.10;99.90;;;;;;5052524;28;20021;-88
2022/03/31 07:29:23;;;;;;;45.05;24.70;;;3.10;99.90;;;;;;5052855;28;20025;-89
2022/03/31 07:31:49;;;;;;;52.47;24.63;;;3.00;99.90;;;;;;5069727;28;20118;-89
2022/03/31 07:34:14;;;;;;;55.85;25.85;;;3.00;99.90;;;;;;5075612;28;20387;-88
2022/03/31 07:36:47;;;;;;;51.30;24.83;;;3.00;99.90;;;;;;5093606;28;20483;-87
2022/03/31 07:39:12;;;;;;;53.78;24.65;;;2.90;99.90;;;;;;5075615;28;20028;-89
2022/03/31 07:41:42;;;;;;;38.67;22.23;;;3.00;99.90;;;;;;5093712;28;20478;-88
2022/03/31 07:44:07;;;;;;;39.17;22.52;;;3.00;99.90;;;;;;5093759;28;20074;-88
2022/03/31 07:46:41;;;;;;;49.03;22.13;;;3.00;99.90;;;;;;5075862;28;20024;-88
2022/03/31 07:49:07;;;;;;;56.03;21.40;;;3.00;99.90;;;;;;5075476;28;20020;-89
2022/03/31 07:51:43;;;;;;;37.50;20.15;;;3.00;99.90;;;;;;5093493;28;20073;-87
2022/03/31 07:54:08;;;;;;;35.38;19.83;;;3.10;99.90;;;;;;5075413;28;20051;-88
2022/03/31 07:56:36;;;;;;;46.35;22.20;;;3.00;99.90;;;;;;5093502;28;20058;-88
2022/03/31 07:59:02;;;;;;;45.67;22.27;;;3.00;99.90;;;;;;5093582;28;20055;-89
2022/03/31 08:01:34;;;;;;;46.10;23.17;;;3.00;99.90;;;;;;5092918;28;20109;-89
2022/03/31 08:04:00;;;;;;;43.97;23.05;;;3.00;99.90;;;;;;5092941;28;20022;-88
2022/03/31 08:06:30;;;;;;;44.80;23.25;;;3.00;99.90;;;;;;5074669;28;20095;-89
2022/03/31 08:08:56;;;;;;;53.90;24.23;;;3.00;99.90;;;;;;5093374;28;20105;-89
2022/03/31 08:11:23;;;;;;;42.45;24.55;;;3.00;99.90;;;;;;5075027;28;20051;-89
2022/03/31 08:13:49;;;;;;;40.33;23.05;;;3.00;99.90;;;;;;5074927;28;20381;-88
2022/03/31 08:16:17;;;;;;;46.65;24.05;;;3.10;99.90;;;;;;5093308;28;20023;-88
2022/03/31 08:18:42;;;;;;;46.88;22.33;;;3.10;99.90;;;;;;5074901;28;20464;-89
2022/03/31 08:21:08;;;;;;;49.10;22.45;;;3.00;99.90;;;;;;5074749;28;20115;-89
2022/03/31 08:23:34;;;;;;;36.80;22.27;;;3.10;99.90;;;;;;5075018;28;20074;-90
2022/03/31 08:26:02;;;;;;;41.88;22.10;;;3.10;99.90;;;;;;5075065;28;20024;-90
2022/03/31 08:28:31;;;;;;;41.80;23.30;;;3.00;99.90;;;;;;5074867;28;20099;-89
2022/03/31 08:31:06;;;;;;;45.88;24.35;;;3.00;99.90;;;;;;5091727;28;20020;-89
2022/03/31 08:33:32;;;;;;;55.10;26.45;;;3.00;99.90;;;;;;5074640;28;20039;-89
2022/03/31 08:35:58;;;;;;;47.92;24.58;;;3.10;99.90;;;;;;5074677;28;20028;-89
2022/03/31 08:38:24;;;;;;;45.53;24.45;;;3.10;99.90;;;;;;5093196;28;20491;-87
2022/03/31 08:40:57;;;;;;;49.90;24.67;;;3.10;99.90;;;;;;5075884;28;20024;-87
2022/03/31 08:43:26;;;;;;;52.75;25.48;;;3.00;99.90;;;;;;5093941;28;20032;-88
2022/03/31 08:46:22;;;;;;;43.15;25.00;;;3.00;99.90;;;;;;5092644;28;20024;-88
2022/03/31 08:48:49;;;;;;;44.47;24.58;;;3.10;99.90;;;;;;5074137;28;20036;-87
2022/03/31 08:51:15;;;;;;;50.33;25.90;;;3.00;99.90;;;;;;5092451;28;20036;-88
2022/03/31 08:53:42;;;;;;;45.92;25.92;;;3.10;99.90;;;;;;5092719;28;20029;-88
2022/03/31 08:56:10;;;;;;;47.75;24.27;;;3.10;99.90;;;;;;5092624;28;20056;-87
2022/03/31 08:58:56;;;;;;;42.80;24.17;;;3.10;99.90;;;;;;5092563;28;20016;-88
2022/03/31 09:01:21;;;;;;;46.30;24.48;;;3.10;99.90;;;;;;5092576;28;20036;-88
2022/03/31 09:03:52;;;;;;;46.45;23.63;;;3.10;99.90;;;;;;5092112;28;20032;-89
2022/03/31 09:06:22;;;;;;;42.55;24.45;;;3.00;99.90;;;;;;5092315;28;20499;-88
2022/03/31 09:08:55;;;;;;;43.65;22.75;;;3.10;99.90;;;;;;5074439;28;20023;-89
2022/03/31 09:11:32;;;;;;;38.72;22.40;;;3.10;99.90;;;;;;5074448;28;20032;-89
2022/03/31 09:14:04;;;;;;;47.03;22.63;;;3.10;99.90;;;;;;5077737;28;20024;-87
2022/03/31 09:16:41;;;;;;;44.20;24.75;;;3.10;99.90;;;;;;5077930;28;20035;-88
2022/03/31 09:19:21;;;;;;;41.47;21.88;;;3.10;99.90;;;;;;5096260;28;20453;-87
2022/03/31 09:21:50;;;;;;;35.50;20.88;;;3.10;99.90;;;;;;5077376;28;20078;-87
2022/03/31 09:24:23;;;;;;;38.03;21.92;;;3.10;99.90;;;;;;5096349;28;20016;-88
2022/03/31 09:26:50;;;;;;;34.80;20.35;;;3.20;99.90;;;;;;5096377;28;20012;-88
2022/03/31 09:29:19;;;;;;;38.47;18.42;;;3.20;99.90;;;;;;5078105;28;20016;-88
2022/03/31 09:31:54;;;;;;;33.75;18.33;;;3.20;99.90;;;;;;5095979;28;20040;-87
2022/03/31 09:34:20;;;;;;;37.03;17.77;;;3.20;99.90;;;;;;5074613;28;20024;-86
2022/03/31 09:36:50;;;;;;;27.13;15.88;;;3.20;99.90;;;;;;5088932;28;20081;-87
2022/03/31 09:39:17;;;;;;;33.50;16.33;;;3.20;99.90;;;;;;5077816;28;20120;-87
2022/03/31 09:41:52;;;;;;;36.47;17.60;;;3.20;99.90;;;;;;5095848;28;20111;-85
2022/03/31 09:44:21;;;;;;;29.38;16.15;;;3.20;99.90;;;;;;5095834;28;20027;-87
2022/03/31 09:46:51;;;;;;;32.38;17.55;;;3.20;99.90;;;;;;5096056;28;20024;-86
2022/03/31 09:49:20;;;;;;;25.23;14.48;;;3.20;99.90;;;;;;5096036;28;20472;-87
2022/03/31 09:52:11;;;;;;;36.72;17.38;;;3.30;99.90;;;;;;5077268;28;20035;-87
2022/03/31 09:54:37;;;;;;;27.42;14.95;;;3.20;99.90;;;;;;5092015;28;20016;-86
2022/03/31 09:57:10;;;;;;;29.20;15.18;;;3.30;99.90;;;;;;5095497;28;20020;-87
2022/03/31 09:59:38;;;;;;;30.40;15.40;;;3.30;99.90;;;;;;5077205;28;20123;-87
2022/03/31 10:02:11;;;;;;;30.50;15.95;;;3.30;99.90;;;;;;5077553;28;20471;-87
2022/03/31 10:04:39;;;;;;;29.38;15.95;;;3.30;99.90;;;;;;5095710;28;20026;-88
2022/03/31 10:07:09;;;;;;;25.92;16.00;;;3.30;99.90;;;;;;5095240;28;20044;-88
2022/03/31 10:09:36;;;;;;;29.02;15.05;;;3.30;99.90;;;;;;5077690;28;20020;-87
2022/03/31 10:12:40;;;;;;;33.13;16.33;;;3.30;99.90;;;;;;5095217;28;20027;-87
2022/03/31 10:15:11;;;;;;;28.80;16.05;;;3.40;99.90;;;;;;5077340;28;20020;-88
2022/03/31 10:17:42;;;;;;;34.35;15.52;;;3.40;99.90;;;;;;5095760;28;20024;-88
2022/03/31 10:20:12;;;;;;;32.85;16.67;;;3.40;99.90;;;;;;5094927;28;20039;-87
2022/03/31 10:25:45;;;;;;;25.75;14.38;;;3.50;99.90;;;;;;5095546;28;20053;-88
2022/03/31 10:28:17;;;;;;;56.55;18.73;;;3.50;99.90;;;;;;5077331;28;20086;-89
2022/03/31 10:30:59;;;;;;;32.45;14.45;;;3.50;99.90;;;;;;5095333;28;20024;-88
2022/03/31 10:33:30;;;;;;;26.17;13.50;;;3.50;99.90;;;;;;5096068;28;20055;-87
2022/03/31 10:36:48;;;;;;;31.92;13.65;;;3.60;99.90;;;;;;5094900;28;20488;-87
2022/03/31 10:39:22;;;;;;;24.77;13.65;;;3.60;99.90;;;;;;5073165;28;20032;-85
2022/03/31 10:42:10;;;;;;;26.63;13.45;;;3.60;99.90;;;;;;5076540;28;20035;-87
2022/03/31 10:44:35;;;;;;;23.75;11.52;;;3.60;99.90;;;;;;5094955;28;20456;-87
2022/03/31 10:47:06;;;;;;;28.98;12.00;;;3.70;99.90;;;;;;5077020;28;20119;-87
2022/03/31 10:49:32;;;;;;;23.30;12.32;;;3.60;99.90;;;;;;5076423;28;20032;-86
2022/03/31 10:52:23;;;;;;;22.95;12.07;;;3.60;99.90;;;;;;5094391;28;20369;-86
2022/03/31 10:54:50;;;;;;;26.63;12.20;;;3.70;99.90;;;;;;5094944;28;20080;-86
2022/03/31 10:57:38;;;;;;;26.02;12.13;;;3.60;99.90;;;;;;5094641;28;20043;-86
2022/03/31 11:00:07;;;;;;;26.77;12.38;;;3.70;99.90;;;;;;5074195;28;20476;-86
2022/03/31 11:02:46;;;;;;;29.35;11.38;;;3.70;99.90;;;;;;5074353;28;20020;-86
2022/03/31 11:05:12;;;;;;;22.75;11.55;;;3.70;99.90;;;;;;5078301;28;20027;-86
2022/03/31 11:07:43;;;;;;;21.95;12.25;;;3.70;99.90;;;;;;5076497;28;20020;-86
2022/03/31 11:10:13;;;;;;;22.83;11.50;;;3.70;99.90;;;;;;5076468;28;20035;-86
2022/03/31 11:12:44;;;;;;;21.83;11.27;;;3.70;99.90;;;;;;5075816;28;20024;-88
2022/03/31 11:15:15;;;;;;;30.70;11.15;;;3.70;99.90;;;;;;5094940;28;20020;-87
2022/03/31 11:18:00;;;;;;;29.35;11.57;;;3.70;99.90;;;;;;5075909;28;20490;-86
2022/03/31 11:20:27;;;;;;;29.10;12.50;;;3.70;99.90;;;;;;5093938;28;20016;-86
2022/03/31 11:22:59;;;;;;;28.38;13.00;;;3.70;99.90;;;;;;5076120;28;20054;-87
2022/03/31 11:25:25;;;;;;;23.17;11.48;;;3.70;99.90;;;;;;5094350;28;20026;-85
2022/03/31 11:28:13;;;;;;;31.27;13.23;;;3.70;99.90;;;;;;5094002;28;20107;-85
2022/03/31 11:30:40;;;;;;;23.83;12.70;;;3.70;99.90;;;;;;5075907;28;20032;-85
2022/03/31 11:33:09;;;;;;;23.40;11.63;;;3.70;99.90;;;;;;5092559;28;20396;-85
2022/03/31 11:35:43;;;;;;;21.73;11.35;;;3.80;99.90;;;;;;5093254;28;20028;-89
2022/03/31 11:38:17;;;;;;;28.65;12.90;;;3.70;99.90;;;;;;5076234;28;20024;-89
2022/03/31 11:40:49;;;;;;;32.13;11.98;;;3.70;99.90;;;;;;5076024;28;20062;-89
2022/03/31 11:43:17;;;;;;;21.25;10.85;;;3.80;99.90;;;;;;5093974;28;20376;-89
2022/03/31 11:45:56;;;;;;;20.27;11.40;;;3.80;99.90;;;;;;5094080;28;20022;-89
2022/03/31 11:48:44;;;;;;;32.47;12.32;;;3.90;99.90;;;;;;5076033;28;20028;-89
2022/03/31 11:51:13;;;;;;;28.40;10.65;;;3.90;99.90;;;;;;5075525;28;20035;-89
2022/03/31 11:53:55;;;;;;;26.23;11.70;;;3.90;99.90;;;;;;5094076;28;20026;-90
2022/03/31 11:56:25;;;;;;;26.40;12.38;;;3.90;99.90;;;;;;5094279;28;20104;-90
2022/03/31 11:58:56;;;;;;;23.40;11.50;;;3.90;99.90;;;;;;5076133;28;20028;-87
2022/03/31 12:01:47;;;;;;;25.98;10.95;;;4.00;99.90;;;;;;5075425;28;20552;-89
2022/03/31 12:04:20;;;;;;;18.73;11.38;;;4.00;99.90;;;;;;5075743;28;20491;-89
2022/03/31 12:07:09;;;;;;;34.22;12.23;;;4.00;99.90;;;;;;5075225;28;20076;-88
2022/03/31 12:09:47;;;;;;;23.27;10.93;;;4.00;99.90;;;;;;5075324;28;20110;-88
2022/03/31 12:12:14;;;;;;;26.17;11.60;;;4.00;99.90;;;;;;5075397;28;20402;-88
2022/03/31 12:14:54;;;;;;;30.23;11.95;;;4.10;99.90;;;;;;5093589;28;20479;-87
2022/03/31 12:17:20;;;;;;;23.20;12.23;;;4.00;99.90;;;;;;5093288;28;20062;-87
2022/03/31 12:19:50;;;;;;;26.50;12.23;;;4.00;99.90;;;;;;5073893;28;20022;-86
2022/03/31 12:22:16;;;;;;;23.73;10.98;;;4.10;99.90;;;;;;5091731;28;20028;-87
2022/03/31 12:24:48;;;;;;;21.95;12.25;;;4.10;99.90;;;;;;5093116;28;20024;-88
2022/03/31 12:27:17;;;;;;;23.02;12.02;;;4.10;99.90;;;;;;5092996;28;20091;-87
2022/03/31 12:29:43;;;;;;;26.60;12.68;;;4.10;99.90;;;;;;5093137;28;20024;-88
2022/03/31 12:32:17;;;;;;;38.80;13.70;;;4.10;99.90;;;;;;5070212;28;20152;-89
2022/03/31 12:34:59;;;;;;;23.73;9.07;;;4.10;99.90;;;;;;5052585;28;20024;-88
2022/03/31 12:37:35;;;;;;;30.63;12.73;;;4.20;99.90;;;;;;5068403;28;20291;-87
2022/03/31 12:40:09;;;;;;;23.05;11.80;;;4.20;99.90;;;;;;5051567;28;20144;-87
2022/03/31 12:42:36;;;;;;;32.20;11.88;;;4.20;99.90;;;;;;5052654;28;20029;-86
2022/03/31 12:45:37;;;;;;;22.02;12.10;;;4.20;99.90;;;;;;5052860;28;20389;-87
2022/03/31 12:48:09;;;;;;;22.63;11.60;;;4.20;99.90;;;;;;5052709;28;20021;-86
2022/03/31 12:50:44;;;;;;;29.70;12.10;;;4.30;99.90;;;;;;5052468;28;20054;-86
2022/03/31 12:53:09;;;;;;;28.60;11.77;;;4.30;99.90;;;;;;5052612;28;20037;-86
2022/03/31 12:55:46;;;;;;;26.65;10.85;;;4.30;99.90;;;;;;5051314;28;20590;-87
2022/03/31 12:58:12;;;;;;;25.35;11.32;;;4.30;99.90;;;;;;5052518;28;20017;-87
2022/03/31 13:00:38;;;;;;;20.45;10.52;;;4.30;99.90;;;;;;5052379;28;20032;-87
2022/03/31 13:03:03;;;;;;;24.30;10.57;;;4.30;99.90;;;;;;5052419;28;20105;-87
2022/03/31 13:05:30;;;;;;;21.13;9.95;;;4.30;99.90;;;;;;5052136;28;20112;-87
2022/03/31 13:07:56;;;;;;;24.70;10.38;;;4.30;99.90;;;;;;5052563;28;20025;-86
2022/03/31 13:10:26;;;;;;;26.10;11.82;;;4.30;99.90;;;;;;5051230;28;20469;-86
2022/03/31 13:12:53;;;;;;;20.75;10.32;;;4.40;99.90;;;;;;5052330;28;20023;-87